sensor_id;sensor_type;location;lat;lon;timestamp;temperature;humidity
19385;DHT22;9828;54.122;17.974;2024-03-23T00:54:24;7.60;99.90
19385;DHT22;9828;54.122;17.974;2024-03-23T00:59:44;7.60;1.00
19385;DHT22;9828;54.122;17.974;2024-03-23T01:05:05;7.60;1.00
19385;DHT22;9828;54.122;17.974;2024-03-23T01:10:25;7.60;1.00
19385;DHT22;9828;54.122;17.974;2024-03-23T01:15:49;7.50;99.90
19385;DHT22;9828;54.122;17.974;2024-03-23T01:21:09;7.60;99.90
19385;DHT22;9828;54.122;17.974;2024-03-23T01:26:29;7.60;1.00
19385;DHT22;9828;54.122;17.974;2024-03-23T01:31:49;7.60;1.00
19385;DHT22;9828;54.122;17.974;2024-03-23T01:37:10;7.60;99.90
19385;DHT22;9828;54.122;17.974;2024-03-23T01:42:30;7.50;1.00
19385;DHT22;9828;54.122;17.974;2024-03-23T01:47:54;7.50;99.90
19385;DHT22;9828;54.122;17.974;2024-03-23T01:53:15;7.50;99.90
19385;DHT22;9828;54.122;17.974;2024-03-23T01:58:41;7.50;1.00
19385;DHT22;9828;54.122;17.974;2024-03-23T02:04:01;7.40;1.00
19385;DHT22;9828;54.122;17.974;2024-03-23T02:09:22;7.40;99.90
19385;DHT22;9828;54.122;17.974;2024-03-23T02:14:42;7.40;1.00
19385;DHT22;9828;54.122;17.974;2024-03-23T02:20:05;7.40;1.00
19385;DHT22;9828;54.122;17.974;2024-03-23T02:25:26;7.40;1.00
19385;DHT22;9828;54.122;17.974;2024-03-23T02:30:46;7.40;99.90
19385;DHT22;9828;54.122;17.974;2024-03-23T02:36:06;7.40;48.80
19385;DHT22;9828;54.122;17.974;2024-03-23T02:41:26;7.40;99.90
19385;DHT22;9828;54.122;17.974;2024-03-23T02:46:46;7.40;99.90
19385;DHT22;9828;54.122;17.974;2024-03-23T02:52:07;7.40;14.20
19385;DHT22;9828;54.122;17.974;2024-03-23T02:57:28;7.40;1.00
19385;DHT22;9828;54.122;17.974;2024-03-23T03:02:48;7.40;99.90
19385;DHT22;9828;54.122;17.974;2024-03-23T03:08:08;7.40;99.90
19385;DHT22;9828;54.122;17.974;2024-03-23T03:13:29;7.40;99.90
19385;DHT22;9828;54.122;17.974;2024-03-23T03:18:49;7.40;1.00
19385;DHT22;9828;54.122;17.974;2024-03-23T03:24:10;7.40;1.00
19385;DHT22;9828;54.122;17.974;2024-03-23T03:29:30;7.30;1.00
19385;DHT22;9828;54.122;17.974;2024-03-23T03:34:55;7.30;7.70
19385;DHT22;9828;54.122;17.974;2024-03-23T03:40:15;7.30;1.00
19385;DHT22;9828;54.122;17.974;2024-03-23T03:45:36;7.30;44.50
19385;DHT22;9828;54.122;17.974;2024-03-23T03:50:56;7.40;1.00
19385;DHT22;9828;54.122;17.974;2024-03-23T03:56:16;7.30;1.00
19385;DHT22;9828;54.122;17.974;2024-03-23T04:01:37;7.30;1.00
19385;DHT22;9828;54.122;17.974;2024-03-23T04:07:01;7.20;1.00
19385;DHT22;9828;54.122;17.974;2024-03-23T04:12:21;7.30;99.90
19385;DHT22;9828;54.122;17.974;2024-03-23T04:17:41;7.30;1.00
19385;DHT22;9828;54.122;17.974;2024-03-23T04:23:02;7.30;99.90
19385;DHT22;9828;54.122;17.974;2024-03-23T04:28:23;7.30;1.00
19385;DHT22;9828;54.122;17.974;2024-03-23T04:33:44;7.20;1.00
19385;DHT22;9828;54.122;17.974;2024-03-23T04:39:04;7.30;99.90
19385;DHT22;9828;54.122;17.974;2024-03-23T04:44:25;7.30;65.60
19385;DHT22;9828;54.122;17.974;2024-03-23T04:49:46;7.30;1.00
19385;DHT22;9828;54.122;17.974;2024-03-23T04:55:06;7.30;1.00
19385;DHT22;9828;54.122;17.974;2024-03-23T05:00:26;7.20;1.00
19385;DHT22;9828;54.122;17.974;2024-03-23T05:05:48;7.10;99.90
19385;DHT22;9828;54.122;17.974;2024-03-23T05:11:08;7.10;1.00
19385;DHT22;9828;54.122;17.974;2024-03-23T05:16:28;7.20;92.10
19385;DHT22;9828;54.122;17.974;2024-03-23T05:21:48;7.20;1.00
19385;DHT22;9828;54.122;17.974;2024-03-23T05:27:08;7.20;99.90
19385;DHT22;9828;54.122;17.974;2024-03-23T05:32:28;7.20;99.90
19385;DHT22;9828;54.122;17.974;2024-03-23T05:37:49;7.20;99.90
19385;DHT22;9828;54.122;17.974;2024-03-23T05:43:09;7.30;1.00
19385;DHT22;9828;54.122;17.974;2024-03-23T05:48:31;7.20;1.00
19385;DHT22;9828;54.122;17.974;2024-03-23T05:53:52;7.30;1.00
19385;DHT22;9828;54.122;17.974;2024-03-23T05:59:12;7.30;99.90
19385;DHT22;9828;54.122;17.974;2024-03-23T06:04:33;7.30;99.90
19385;DHT22;9828;54.122;17.974;2024-03-23T06:09:53;7.30;1.00
19385;DHT22;9828;54.122;17.974;2024-03-23T06:15:13;7.20;1.00
19385;DHT22;9828;54.122;17.974;2024-03-23T06:20:33;7.30;1.00
19385;DHT22;9828;54.122;17.974;2024-03-23T06:25:53;7.20;1.00
19385;DHT22;9828;54.122;17.974;2024-03-23T06:31:14;7.30;1.00
19385;DHT22;9828;54.122;17.974;2024-03-23T06:36:34;7.30;10.40
19385;DHT22;9828;54.122;17.974;2024-03-23T06:41:55;7.30;99.90
19385;DHT22;9828;54.122;17.974;2024-03-23T06:47:16;7.30;99.90
19385;DHT22;9828;54.122;17.974;2024-03-23T06:52:36;7.20;3.90
19385;DHT22;9828;54.122;17.974;2024-03-23T06:57:56;7.20;1.00
19385;DHT22;9828;54.122;17.974;2024-03-23T07:03:17;7.20;56.00
19385;DHT22;9828;54.122;17.974;2024-03-23T07:08:37;7.20;99.90
19385;DHT22;9828;54.122;17.974;2024-03-23T07:13:57;7.20;99.90
19385;DHT22;9828;54.122;17.974;2024-03-23T07:19:18;7.20;1.00
19385;DHT22;9828;54.122;17.974;2024-03-23T07:24:39;7.20;3.50
19385;DHT22;9828;54.122;17.974;2024-03-23T07:30:00;7.30;99.90
19385;DHT22;9828;54.122;17.974;2024-03-23T07:35:21;7.30;99.90
19385;DHT22;9828;54.122;17.974;2024-03-23T07:40:41;7.30;99.90
19385;DHT22;9828;54.122;17.974;2024-03-23T07:46:01;7.40;99.90
19385;DHT22;9828;54.122;17.974;2024-03-23T07:51:23;7.40;1.00
19385;DHT22;9828;54.122;17.974;2024-03-23T07:56:43;7.40;99.90
19385;DHT22;9828;54.122;17.974;2024-03-23T08:02:05;7.40;99.90
19385;DHT22;9828;54.122;17.974;2024-03-23T08:07:25;7.40;99.90
19385;DHT22;9828;54.122;17.974;2024-03-23T08:12:46;7.40;99.90
19385;DHT22;9828;54.122;17.974;2024-03-23T08:18:06;7.40;1.00
19385;DHT22;9828;54.122;17.974;2024-03-23T08:23:32;7.50;99.90
19385;DHT22;9828;54.122;17.974;2024-03-23T08:28:59;7.50;1.00
19385;DHT22;9828;54.122;17.974;2024-03-23T08:34:19;7.50;1.00
19385;DHT22;9828;54.122;17.974;2024-03-23T08:39:39;7.60;1.00
19385;DHT22;9828;54.122;17.974;2024-03-23T08:44:59;7.80;99.90
19385;DHT22;9828;54.122;17.974;2024-03-23T08:50:19;7.90;1.00
19385;DHT22;9828;54.122;17.974;2024-03-23T08:55:41;7.90;1.00
19385;DHT22;9828;54.122;17.974;2024-03-23T09:01:12;8.00;99.90
19385;DHT22;9828;54.122;17.974;2024-03-23T09:06:35;8.20;1.00
19385;DHT22;9828;54.122;17.974;2024-03-23T09:11:56;8.60;1.00
19385;DHT22;9828;54.122;17.974;2024-03-23T09:17:16;8.70;99.90
19385;DHT22;9828;54.122;17.974;2024-03-23T09:22:38;8.90;99.90
19385;DHT22;9828;54.122;17.974;2024-03-23T09:27:58;9.10;99.90
19385;DHT22;9828;54.122;17.974;2024-03-23T09:33:19;9.10;20.10
19385;DHT22;9828;54.122;17.974;2024-03-23T09:38:41;8.90;99.90
19385;DHT22;9828;54.122;17.974;2024-03-23T09:44:01;8.80;99.90
19385;DHT22;9828;54.122;17.974;2024-03-23T09:49:22;8.60;99.90
19385;DHT22;9828;54.122;17.974;2024-03-23T09:54:42;8.50;99.90
19385;DHT22;9828;54.122;17.974;2024-03-23T10:00:03;8.50;99.90
19385;DHT22;9828;54.122;17.974;2024-03-23T10:05:26;8.40;99.90
19385;DHT22;9828;54.122;17.974;2024-03-23T10:10:47;8.50;99.90
19385;DHT22;9828;54.122;17.974;2024-03-23T10:16:08;8.60;1.00
19385;DHT22;9828;54.122;17.974;2024-03-23T10:21:28;8.50;1.00
19385;DHT22;9828;54.122;17.974;2024-03-23T10:26:56;8.60;1.00
19385;DHT22;9828;54.122;17.974;2024-03-23T10:32:18;8.60;99.90
19385;DHT22;9828;54.122;17.974;2024-03-23T10:37:38;8.60;1.00
19385;DHT22;9828;54.122;17.974;2024-03-23T10:42:58;8.60;1.00
19385;DHT22;9828;54.122;17.974;2024-03-23T10:48:20;8.60;99.90
19385;DHT22;9828;54.122;17.974;2024-03-23T10:53:40;8.60;99.90
19385;DHT22;9828;54.122;17.974;2024-03-23T10:59:02;8.60;99.90
19385;DHT22;9828;54.122;17.974;2024-03-23T11:04:36;8.70;99.90
19385;DHT22;9828;54.122;17.974;2024-03-23T11:10:00;8.80;99.90
19385;DHT22;9828;54.122;17.974;2024-03-23T11:15:22;8.80;99.90
19385;DHT22;9828;54.122;17.974;2024-03-23T11:20:42;8.90;99.90
19385;DHT22;9828;54.122;17.974;2024-03-23T11:26:07;9.00;99.90
19385;DHT22;9828;54.122;17.974;2024-03-23T11:31:27;9.20;99.90
19385;DHT22;9828;54.122;17.974;2024-03-23T11:36:48;9.40;99.90
19385;DHT22;9828;54.122;17.974;2024-03-23T11:42:08;9.40;99.90
19385;DHT22;9828;54.122;17.974;2024-03-23T11:47:29;9.40;1.00
19385;DHT22;9828;54.122;17.974;2024-03-23T11:52:49;9.20;99.90
19385;DHT22;9828;54.122;17.974;2024-03-23T11:58:13;9.20;99.90
19385;DHT22;9828;54.122;17.974;2024-03-23T12:03:33;9.60;99.90
19385;DHT22;9828;54.122;17.974;2024-03-23T12:09:05;9.60;99.90
19385;DHT22;9828;54.122;17.974;2024-03-23T12:14:26;9.50;99.90
19385;DHT22;9828;54.122;17.974;2024-03-23T12:19:49;9.30;99.90
19385;DHT22;9828;54.122;17.974;2024-03-23T12:25:09;9.20;99.90
19385;DHT22;9828;54.122;17.974;2024-03-23T12:30:29;9.10;99.90
19385;DHT22;9828;54.122;17.974;2024-03-23T12:35:50;9.10;99.90
19385;DHT22;9828;54.122;17.974;2024-03-23T12:41:31;9.20;99.90
19385;DHT22;9828;54.122;17.974;2024-03-23T12:46:51;9.10;99.90
19385;DHT22;9828;54.122;17.974;2024-03-23T12:52:11;8.90;1.00
19385;DHT22;9828;54.122;17.974;2024-03-23T12:57:33;8.80;99.90
19385;DHT22;9828;54.122;17.974;2024-03-23T13:02:53;8.70;1.00
19385;DHT22;9828;54.122;17.974;2024-03-23T13:08:13;8.60;1.00
19385;DHT22;9828;54.122;17.974;2024-03-23T13:13:34;8.40;90.70
19385;DHT22;9828;54.122;17.974;2024-03-23T13:18:54;8.50;1.00
19385;DHT22;9828;54.122;17.974;2024-03-23T13:24:15;8.60;92.00
19385;DHT22;9828;54.122;17.974;2024-03-23T13:29:35;8.60;1.00
19385;DHT22;9828;54.122;17.974;2024-03-23T13:34:55;8.60;1.00
19385;DHT22;9828;54.122;17.974;2024-03-23T13:40:15;8.50;99.90
19385;DHT22;9828;54.122;17.974;2024-03-23T13:45:36;8.60;1.00
19385;DHT22;9828;54.122;17.974;2024-03-23T13:51:00;8.40;99.90
19385;DHT22;9828;54.122;17.974;2024-03-23T13:56:21;8.20;1.00
19385;DHT22;9828;54.122;17.974;2024-03-23T14:01:41;8.30;1.00
19385;DHT22;9828;54.122;17.974;2024-03-23T14:07:02;8.40;1.00
19385;DHT22;9828;54.122;17.974;2024-03-23T14:12:22;8.40;1.00
19385;DHT22;9828;54.122;17.974;2024-03-23T14:17:43;8.30;1.00
19385;DHT22;9828;54.122;17.974;2024-03-23T14:23:03;8.20;1.00
19385;DHT22;9828;54.122;17.974;2024-03-23T14:28:24;8.10;1.00
19385;DHT22;9828;54.122;17.974;2024-03-23T14:33:44;7.90;1.00
19385;DHT22;9828;54.122;17.974;2024-03-23T14:39:07;7.80;1.00
19385;DHT22;9828;54.122;17.974;2024-03-23T14:44:28;7.90;1.00
19385;DHT22;9828;54.122;17.974;2024-03-23T14:49:48;7.80;1.00
19385;DHT22;9828;54.122;17.974;2024-03-23T14:55:10;7.80;1.00
19385;DHT22;9828;54.122;17.974;2024-03-23T15:00:30;7.80;1.00
19385;DHT22;9828;54.122;17.974;2024-03-23T15:05:58;7.80;99.90
19385;DHT22;9828;54.122;17.974;2024-03-23T15:11:18;7.80;99.90
19385;DHT22;9828;54.122;17.974;2024-03-23T15:16:39;7.80;99.90
19385;DHT22;9828;54.122;17.974;2024-03-23T15:22:01;7.80;99.90
19385;DHT22;9828;54.122;17.974;2024-03-23T15:27:22;7.80;99.90
19385;DHT22;9828;54.122;17.974;2024-03-23T15:32:42;7.70;57.00
19385;DHT22;9828;54.122;17.974;2024-03-23T15:38:02;7.70;99.90
19385;DHT22;9828;54.122;17.974;2024-03-23T15:43:22;7.60;99.90
19385;DHT22;9828;54.122;17.974;2024-03-23T15:48:42;7.60;99.90
19385;DHT22;9828;54.122;17.974;2024-03-23T15:54:06;7.50;99.90
19385;DHT22;9828;54.122;17.974;2024-03-23T15:59:26;7.50;62.90
19385;DHT22;9828;54.122;17.974;2024-03-23T16:04:46;7.50;99.90
19385;DHT22;9828;54.122;17.974;2024-03-23T16:10:07;7.40;99.90
19385;DHT22;9828;54.122;17.974;2024-03-23T16:15:29;7.50;99.90
19385;DHT22;9828;54.122;17.974;2024-03-23T16:21:07;7.40;45.40
19385;DHT22;9828;54.122;17.974;2024-03-23T16:26:29;7.40;1.00
19385;DHT22;9828;54.122;17.974;2024-03-23T16:31:49;7.30;1.00
19385;DHT22;9828;54.122;17.974;2024-03-23T16:37:09;7.20;1.00
19385;DHT22;9828;54.122;17.974;2024-03-23T16:42:30;7.10;1.00
19385;DHT22;9828;54.122;17.974;2024-03-23T16:47:51;7.10;1.00
19385;DHT22;9828;54.122;17.974;2024-03-23T16:53:11;7.10;1.00
19385;DHT22;9828;54.122;17.974;2024-03-23T16:58:32;7.10;1.00
19385;DHT22;9828;54.122;17.974;2024-03-23T17:03:52;7.00;67.40
19385;DHT22;9828;54.122;17.974;2024-03-23T17:09:12;7.00;99.90
19385;DHT22;9828;54.122;17.974;2024-03-23T17:14:33;7.10;92.10
19385;DHT22;9828;54.122;17.974;2024-03-23T17:19:59;7.10;99.90
19385;DHT22;9828;54.122;17.974;2024-03-23T17:25:20;7.00;99.90
19385;DHT22;9828;54.122;17.974;2024-03-23T17:30:40;7.00;99.90
19385;DHT22;9828;54.122;17.974;2024-03-23T17:36:02;7.00;99.90
19385;DHT22;9828;54.122;17.974;2024-03-23T17:41:23;6.90;99.90
19385;DHT22;9828;54.122;17.974;2024-03-23T17:46:45;6.80;99.90
19385;DHT22;9828;54.122;17.974;2024-03-23T17:52:09;6.70;99.90
19385;DHT22;9828;54.122;17.974;2024-03-23T17:57:30;6.60;1.00
19385;DHT22;9828;54.122;17.974;2024-03-23T18:02:50;6.50;1.00
19385;DHT22;9828;54.122;17.974;2024-03-23T18:08:10;6.40;1.00
19385;DHT22;9828;54.122;17.974;2024-03-23T18:13:30;6.30;1.00
19385;DHT22;9828;54.122;17.974;2024-03-23T18:18:50;6.20;1.00
19385;DHT22;9828;54.122;17.974;2024-03-23T18:24:11;6.10;1.00
19385;DHT22;9828;54.122;17.974;2024-03-23T18:29:32;6.10;1.00
19385;DHT22;9828;54.122;17.974;2024-03-23T18:34:52;6.00;1.00
19385;DHT22;9828;54.122;17.974;2024-03-23T18:40:12;5.90;1.00
19385;DHT22;9828;54.122;17.974;2024-03-23T18:45:33;5.80;1.00
19385;DHT22;9828;54.122;17.974;2024-03-23T18:50:54;5.80;1.00
19385;DHT22;9828;54.122;17.974;2024-03-23T18:56:15;5.70;1.00
19385;DHT22;9828;54.122;17.974;2024-03-23T19:01:36;5.90;53.70
19385;DHT22;9828;54.122;17.974;2024-03-23T19:06:56;5.50;99.90
19385;DHT22;9828;54.122;17.974;2024-03-23T19:12:17;5.40;32.70
19385;DHT22;9828;54.122;17.974;2024-03-23T19:17:37;5.40;99.90
19385;DHT22;9828;54.122;17.974;2024-03-23T19:22:58;5.30;99.90
19385;DHT22;9828;54.122;17.974;2024-03-23T19:28:20;5.30;99.90
19385;DHT22;9828;54.122;17.974;2024-03-23T19:33:41;5.30;1.00
19385;DHT22;9828;54.122;17.974;2024-03-23T19:39:01;5.20;99.90
19385;DHT22;9828;54.122;17.974;2024-03-23T19:49:42;4.90;1.00
19385;DHT22;9828;54.122;17.974;2024-03-23T19:55:03;4.90;99.90
19385;DHT22;9828;54.122;17.974;2024-03-23T20:00:23;4.80;99.90
19385;DHT22;9828;54.122;17.974;2024-03-23T20:05:44;4.60;99.90
19385;DHT22;9828;54.122;17.974;2024-03-23T20:11:06;4.50;1.00
19385;DHT22;9828;54.122;17.974;2024-03-23T20:16:26;4.50;99.90
19385;DHT22;9828;54.122;17.974;2024-03-23T20:21:47;4.40;1.00
19385;DHT22;9828;54.122;17.974;2024-03-23T20:27:07;4.40;1.00
19385;DHT22;9828;54.122;17.974;2024-03-23T20:32:28;4.40;1.00
19385;DHT22;9828;54.122;17.974;2024-03-23T20:37:48;4.40;42.20
19385;DHT22;9828;54.122;17.974;2024-03-23T20:43:08;4.50;1.00
19385;DHT22;9828;54.122;17.974;2024-03-23T20:48:30;4.40;1.00
19385;DHT22;9828;54.122;17.974;2024-03-23T20:53:54;4.40;99.90
19385;DHT22;9828;54.122;17.974;2024-03-23T20:59:14;4.30;99.90
19385;DHT22;9828;54.122;17.974;2024-03-23T21:04:35;4.30;1.00
19385;DHT22;9828;54.122;17.974;2024-03-23T21:09:55;4.30;1.00
19385;DHT22;9828;54.122;17.974;2024-03-23T21:15:16;4.40;1.00
19385;DHT22;9828;54.122;17.974;2024-03-23T21:20:36;4.40;1.00
19385;DHT22;9828;54.122;17.974;2024-03-23T21:26:01;4.50;1.00
19385;DHT22;9828;54.122;17.974;2024-03-23T21:31:21;4.50;99.90
19385;DHT22;9828;54.122;17.974;2024-03-23T21:36:42;4.50;1.00
19385;DHT22;9828;54.122;17.974;2024-03-23T21:42:02;4.60;99.90
19385;DHT22;9828;54.122;17.974;2024-03-23T21:47:22;4.60;1.00
19385;DHT22;9828;54.122;17.974;2024-03-23T21:52:43;4.60;99.90
19385;DHT22;9828;54.122;17.974;2024-03-23T21:58:04;4.70;1.00
19385;DHT22;9828;54.122;17.974;2024-03-23T22:03:24;4.70;1.00
19385;DHT22;9828;54.122;17.974;2024-03-23T22:08:45;4.70;99.90
19385;DHT22;9828;54.122;17.974;2024-03-23T22:14:06;4.70;1.00
19385;DHT22;9828;54.122;17.974;2024-03-23T22:19:26;4.70;73.30
19385;DHT22;9828;54.122;17.974;2024-03-23T22:24:47;4.70;99.90
19385;DHT22;9828;54.122;17.974;2024-03-23T22:30:08;4.70;99.90
19385;DHT22;9828;54.122;17.974;2024-03-23T22:35:29;4.70;1.00
19385;DHT22;9828;54.122;17.974;2024-03-23T22:40:57;4.70;1.00
19385;DHT22;9828;54.122;17.974;2024-03-23T22:46:17;4.80;1.00
19385;DHT22;9828;54.122;17.974;2024-03-23T22:51:37;4.80;95.70
19385;DHT22;9828;54.122;17.974;2024-03-23T22:56:57;4.80;92.80
19385;DHT22;9828;54.122;17.974;2024-03-23T23:02:18;4.90;1.00
19385;DHT22;9828;54.122;17.974;2024-03-23T23:07:38;4.90;1.00
19385;DHT22;9828;54.122;17.974;2024-03-23T23:12:59;4.90;99.90
19385;DHT22;9828;54.122;17.974;2024-03-23T23:18:19;4.90;1.00
19385;DHT22;9828;54.122;17.974;2024-03-23T23:23:39;4.80;1.00
19385;DHT22;9828;54.122;17.974;2024-03-23T23:28:59;4.90;1.00
19385;DHT22;9828;54.122;17.974;2024-03-23T23:34:20;4.90;1.00
19385;DHT22;9828;54.122;17.974;2024-03-23T23:39:41;4.90;99.90
19385;DHT22;9828;54.122;17.974;2024-03-23T23:45:01;4.90;1.00
19385;DHT22;9828;54.122;17.974;2024-03-23T23:50:22;4.90;56.40
19385;DHT22;9828;54.122;17.974;2024-03-23T23:55:42;4.90;1.00
